Time;durP1;ratioP1;P1;durP2;ratioP2;P2;SDS_P1;SDS_P2;PMS_P1;PMS_P2;Temp;Humidity;BMP_temperature;BMP_pressure;BME280_temperature;BME280_humidity;BME280_pressure;Samples;Min_cycle;Max_cycle;Signal;HPM_P1;HPM_P2
2023/02/03 00:01:33;;;;;;;1.90;0.32;;;7.20;75.40;;;;;;4923838;28;93314;-78
2023/02/03 00:03:58;;;;;;;2.92;0.40;;;7.20;75.10;;;;;;4918907;28;94900;-79
2023/02/03 00:06:24;;;;;;;3.75;0.50;;;7.30;74.60;;;;;;4926071;28;92550;-79
2023/02/03 00:09:00;;;;;;;3.55;0.40;;;7.20;75.90;;;;;;4908576;28;93399;-78
2023/02/03 00:11:29;;;;;;;4.57;0.28;;;7.30;75.00;;;;;;4918724;28;93701;-79
2023/02/03 00:13:55;;;;;;;3.45;0.20;;;7.30;75.30;;;;;;4914853;28;92442;-80
2023/02/03 00:16:20;;;;;;;2.55;0.30;;;7.30;75.40;;;;;;4919570;28;92407;-78
2023/02/03 00:18:46;;;;;;;3.83;0.28;;;7.30;75.80;;;;;;4917738;28;91656;-79
2023/02/03 00:21:13;;;;;;;3.33;0.20;;;7.20;75.80;;;;;;4919182;28;93462;-77
2023/02/03 00:23:40;;;;;;;2.40;0.25;;;7.20;76.70;;;;;;4914985;28;94360;-77
2023/02/03 00:26:10;;;;;;;5.13;0.63;;;7.20;76.40;;;;;;4917295;28;93256;-78
2023/02/03 00:28:36;;;;;;;3.35;0.50;;;7.10;78.00;;;;;;4916558;28;92771;-78
2023/02/03 00:31:02;;;;;;;2.13;0.40;;;7.00;77.90;;;;;;4916722;28;93161;-79
2023/02/03 00:33:27;;;;;;;4.40;0.60;;;6.90;78.60;;;;;;4915703;28;93868;-79
2023/02/03 00:35:53;;;;;;;3.90;0.40;;;6.90;78.30;;;;;;4922680;28;92459;-78
2023/02/03 00:38:19;;;;;;;3.58;0.30;;;6.90;78.20;;;;;;4917788;28;92474;-82
2023/02/03 00:40:52;;;;;;;2.00;0.30;;;6.90;77.60;;;;;;4920974;28;92830;-80
2023/02/03 00:43:18;;;;;;;2.47;0.50;;;7.00;76.90;;;;;;4914851;28;93461;-79
2023/02/03 00:45:43;;;;;;;2.85;0.40;;;7.00;77.30;;;;;;4926170;28;92134;-79
2023/02/03 00:48:09;;;;;;;2.90;0.47;;;7.10;77.60;;;;;;4915823;28;92370;-78
2023/02/03 00:50:36;;;;;;;3.03;1.05;;;7.10;77.20;;;;;;4923981;28;94702;-76
2023/02/03 00:53:01;;;;;;;2.88;0.73;;;7.00;78.90;;;;;;4906228;28;93783;-78
2023/02/03 00:55:27;;;;;;;3.78;0.90;;;6.90;80.00;;;;;;4919471;28;93343;-77
2023/02/03 00:57:53;;;;;;;3.42;1.00;;;6.70;80.60;;;;;;4912546;28;92476;-79
2023/02/03 01:00:19;;;;;;;3.38;0.70;;;6.60;80.40;;;;;;4911974;28;92867;-78
2023/02/03 01:02:45;;;;;;;3.65;0.80;;;6.60;80.70;;;;;;4923016;28;94424;-79
2023/02/03 01:05:11;;;;;;;2.75;0.57;;;6.60;81.10;;;;;;4915710;28;92498;-77
2023/02/03 01:07:37;;;;;;;5.03;0.65;;;6.60;81.50;;;;;;4911179;28;91598;-79
2023/02/03 01:10:03;;;;;;;3.17;0.82;;;6.60;80.30;;;;;;4917686;28;93865;-79
2023/02/03 01:12:31;;;;;;;4.10;1.02;;;6.60;81.20;;;;;;4918600;28;94050;-81
2023/02/03 01:14:57;;;;;;;5.20;1.10;;;6.50;81.70;;;;;;4909677;28;93450;-80
2023/02/03 01:17:24;;;;;;;4.45;0.88;;;6.50;82.00;;;;;;4912277;28;92339;-79
2023/02/03 01:19:51;;;;;;;3.70;1.02;;;6.50;82.10;;;;;;4922446;28;93759;-80
2023/02/03 01:22:17;;;;;;;3.63;1.05;;;6.40;82.00;;;;;;4921666;28;92868;-82
2023/02/03 01:24:42;;;;;;;3.47;0.98;;;6.40;82.60;;;;;;4913385;28;93075;-80
2023/02/03 01:27:08;;;;;;;4.13;0.90;;;6.30;82.80;;;;;;4922202;28;92727;-79
2023/02/03 01:29:34;;;;;;;3.40;1.00;;;6.30;82.50;;;;;;4916733;28;92905;-80
2023/02/03 01:32:00;;;;;;;4.40;1.00;;;6.40;82.50;;;;;;4920855;28;93908;-81
2023/02/03 01:34:25;;;;;;;3.00;1.05;;;6.40;82.70;;;;;;4910540;28;92528;-80
2023/02/03 01:36:51;;;;;;;4.72;1.17;;;6.30;82.80;;;;;;4914114;28;92521;-79
2023/02/03 01:39:17;;;;;;;2.72;0.98;;;6.30;82.60;;;;;;4912956;28;94036;-78
2023/02/03 01:41:43;;;;;;;2.88;1.17;;;6.40;82.70;;;;;;4914189;28;93773;-78
2023/02/03 01:44:38;;;;;;;3.70;0.98;;;6.50;82.50;;;;;;4915068;28;92355;-79
2023/02/03 01:47:30;;;;;;;4.13;1.05;;;6.50;82.60;;;;;;4916137;28;92702;-78
2023/02/03 01:49:59;;;;;;;4.47;1.00;;;6.60;82.30;;;;;;4916596;28;94052;-77
2023/02/03 01:52:25;;;;;;;4.07;1.10;;;6.60;82.40;;;;;;4913422;28;93875;-78
2023/02/03 01:54:55;;;;;;;4.10;0.60;;;6.60;82.50;;;;;;4914141;28;92491;-78
2023/02/03 01:57:27;;;;;;;4.95;0.82;;;6.50;81.40;;;;;;4915294;28;93314;-78
2023/02/03 01:59:56;;;;;;;2.65;0.77;;;6.60;81.40;;;;;;4916955;28;93704;-77
2023/02/03 02:02:22;;;;;;;4.00;0.80;;;6.60;81.50;;;;;;4914165;28;93665;-77
2023/02/03 02:05:13;;;;;;;4.90;0.90;;;6.60;81.30;;;;;;4914396;28;95318;-76
2023/02/03 02:07:41;;;;;;;2.53;0.65;;;6.70;80.90;;;;;;4916895;28;92865;-79
2023/02/03 02:10:07;;;;;;;3.70;1.00;;;6.70;81.00;;;;;;4914862;28;94424;-78
2023/02/03 02:12:33;;;;;;;10.32;2.05;;;6.70;80.80;;;;;;4914466;28;95179;-80
2023/02/03 02:14:59;;;;;;;6.45;1.60;;;6.60;81.30;;;;;;4917390;28;92459;-79
2023/02/03 02:17:48;;;;;;;3.40;1.00;;;6.60;81.70;;;;;;4914190;28;92832;-80
2023/02/03 02:20:29;;;;;;;6.10;1.10;;;6.60;81.70;;;;;;4910898;28;93230;-80
2023/02/03 02:23:19;;;;;;;2.20;0.70;;;6.60;81.70;;;;;;4915017;28;93463;-79
2023/02/03 02:25:54;;;;;;;3.70;1.02;;;6.60;81.30;;;;;;4914637;28;92604;-80
2023/02/03 02:28:57;;;;;;;3.33;0.68;;;6.60;81.30;;;;;;4914715;28;93776;-80
2023/02/03 02:31:50;;;;;;;2.90;0.88;;;6.50;81.60;;;;;;4913537;28;94672;-79
2023/02/03 02:34:25;;;;;;;4.38;0.73;;;6.50;81.90;;;;;;4910822;28;95779;-79
2023/02/03 02:36:50;;;;;;;3.33;0.70;;;6.50;81.60;;;;;;4911094;28;92917;-79
2023/02/03 02:39:34;;;;;;;2.30;0.50;;;6.40;81.30;;;;;;4916062;28;92751;-79
2023/02/03 02:42:09;;;;;;;4.32;0.45;;;6.50;80.80;;;;;;4909997;28;92591;-77
2023/02/03 02:44:42;;;;;;;3.65;0.68;;;6.60;80.30;;;;;;4915359;28;93442;-80
2023/02/03 02:47:21;;;;;;;4.05;0.50;;;6.60;80.20;;;;;;4914064;28;92633;-79
2023/02/03 02:49:58;;;;;;;3.83;0.40;;;6.70;79.90;;;;;;4914229;28;91791;-79
2023/02/03 02:52:27;;;;;;;2.28;0.52;;;6.70;80.00;;;;;;4913547;28;92819;-79
2023/02/03 02:54:57;;;;;;;3.58;0.60;;;6.70;79.60;;;;;;4912638;28;92575;-77
2023/02/03 02:57:26;;;;;;;2.25;0.50;;;6.80;78.90;;;;;;4912456;28;94984;-79
2023/02/03 02:59:53;;;;;;;4.35;0.60;;;6.80;79.30;;;;;;4913637;28;93224;-77
2023/02/03 03:02:18;;;;;;;2.90;0.70;;;6.70;79.40;;;;;;4913209;28;92672;-78
2023/02/03 03:04:46;;;;;;;3.55;0.93;;;6.70;80.00;;;;;;4914496;28;92897;-80
2023/02/03 03:07:23;;;;;;;3.75;1.20;;;6.70;80.80;;;;;;4913398;28;92468;-78
2023/02/03 03:09:56;;;;;;;4.47;0.85;;;6.60;80.60;;;;;;4910088;28;92154;-78
2023/02/03 03:12:29;;;;;;;4.07;1.33;;;6.50;81.00;;;;;;4918765;28;92585;-79
2023/02/03 03:15:02;;;;;;;5.22;1.52;;;6.50;81.10;;;;;;4912279;28;92850;-78
2023/02/03 03:17:31;;;;;;;3.63;1.10;;;6.50;80.90;;;;;;4916514;28;92425;-80
2023/02/03 03:20:02;;;;;;;3.85;1.13;;;6.50;81.40;;;;;;4914098;28;93806;-79
2023/02/03 03:22:35;;;;;;;2.67;1.15;;;6.40;82.20;;;;;;4914117;28;94840;-80
2023/02/03 03:25:12;;;;;;;3.20;1.15;;;6.40;81.70;;;;;;4913198;28;93277;-78
2023/02/03 03:27:40;;;;;;;;;;;6.30;81.30;;;;;;4913037;28;92449;-83
2023/02/03 03:30:13;;;;;;;2.75;0.75;;;6.30;81.70;;;;;;4916548;28;92201;-78
2023/02/03 03:32:39;;;;;;;4.47;1.60;;;6.30;82.60;;;;;;4914826;28;95133;-77
2023/02/03 03:35:06;;;;;;;5.50;1.95;;;6.30;83.00;;;;;;4914048;28;93048;-79
2023/02/03 03:37:41;;;;;;;3.45;1.50;;;6.30;83.70;;;;;;4916486;28;92623;-78
2023/02/03 03:40:10;;;;;;;3.38;1.38;;;6.20;82.90;;;;;;4912906;28;91546;-77
2023/02/03 03:43:00;;;;;;;4.05;1.90;;;6.20;83.00;;;;;;4913755;28;92733;-80
2023/02/03 03:45:31;;;;;;;;;;;6.10;83.20;;;;;;4908751;28;93750;-79
2023/02/03 03:48:12;;;;;;;4.55;1.50;;;6.10;83.30;;;;;;4919658;28;93775;-78
2023/02/03 03:50:47;;;;;;;4.72;2.00;;;6.10;83.00;;;;;;4914150;28;93347;-77
2023/02/03 03:53:16;;;;;;;4.20;1.80;;;6.20;83.10;;;;;;4924095;28;93479;-89
2023/02/03 03:55:45;;;;;;;4.43;1.63;;;6.20;83.10;;;;;;4951032;28;95414;-90
2023/02/03 03:58:30;;;;;;;5.35;1.50;;;6.20;83.90;;;;;;4930011;28;92295;-82
2023/02/03 04:00:59;;;;;;;5.20;1.50;;;6.20;83.40;;;;;;4918226;28;92711;-80
2023/02/03 04:03:42;;;;;;;4.50;1.63;;;6.10;83.40;;;;;;4913915;28;93636;-79
2023/02/03 04:06:07;;;;;;;5.25;1.48;;;6.20;83.00;;;;;;4912200;28;92876;-80
2023/02/03 04:08:33;;;;;;;6.32;1.17;;;6.20;83.30;;;;;;4913601;28;92610;-80
2023/02/03 04:10:59;;;;;;;4.30;1.90;;;6.10;83.60;;;;;;4913411;28;92109;-79
2023/02/03 04:13:24;;;;;;;4.00;1.77;;;6.10;83.80;;;;;;4910185;28;94340;-79
2023/02/03 04:15:50;;;;;;;3.58;1.30;;;6.10;83.70;;;;;;4915352;28;93778;-78
2023/02/03 04:18:16;;;;;;;3.30;1.10;;;6.10;83.30;;;;;;4912822;28;92153;-77
2023/02/03 04:20:42;;;;;;;3.58;1.00;;;6.20;82.60;;;;;;4913791;28;93356;-80
2023/02/03 04:23:09;;;;;;;3.42;1.00;;;6.20;82.40;;;;;;4912920;28;94532;-77
2023/02/03 04:25:34;;;;;;;1.98;0.50;;;6.30;81.30;;;;;;4914824;28;93623;-79
2023/02/03 04:28:00;;;;;;;3.42;0.70;;;6.30;80.20;;;;;;4912566;28;93356;-78
2023/02/03 04:30:26;;;;;;;1.98;0.57;;;6.30;79.60;;;;;;4915430;28;91749;-78
2023/02/03 04:32:52;;;;;;;2.85;0.60;;;6.30;79.80;;;;;;4913090;28;92996;-77
2023/02/03 04:35:18;;;;;;;2.97;0.65;;;6.30;79.60;;;;;;4911102;28;92412;-80
2023/02/03 04:37:44;;;;;;;3.13;0.70;;;6.30;79.90;;;;;;4916795;28;94823;-78
2023/02/03 04:40:10;;;;;;;4.93;0.70;;;6.30;79.80;;;;;;4916849;28;92579;-77
2023/02/03 04:42:37;;;;;;;5.30;0.98;;;6.30;79.50;;;;;;4913181;28;92822;-78
2023/02/03 04:45:04;;;;;;;4.63;1.15;;;6.30;80.00;;;;;;4914567;28;92895;-77
2023/02/03 04:47:30;;;;;;;5.22;1.25;;;6.30;79.00;;;;;;4909907;28;92502;-77
2023/02/03 04:49:55;;;;;;;5.47;1.25;;;6.30;79.20;;;;;;4916915;28;92102;-78
2023/02/03 04:52:21;;;;;;;2.78;0.90;;;6.30;79.20;;;;;;4918439;28;94674;-79
2023/02/03 04:54:47;;;;;;;3.75;1.33;;;6.40;79.50;;;;;;4920732;28;93371;-80
2023/02/03 04:57:12;;;;;;;5.40;1.00;;;6.40;79.30;;;;;;4916127;28;92558;-78
2023/02/03 04:59:38;;;;;;;2.67;0.80;;;6.40;78.70;;;;;;4918924;28;93113;-79
2023/02/03 05:02:04;;;;;;;2.78;0.63;;;6.40;78.60;;;;;;4927084;28;94578;-77
2023/02/03 05:04:31;;;;;;;3.30;0.90;;;6.40;78.40;;;;;;4917146;28;93244;-78
2023/02/03 05:06:56;;;;;;;2.72;0.70;;;6.40;78.40;;;;;;4921646;28;92077;-78
2023/02/03 05:09:26;;;;;;;2.58;0.80;;;6.50;78.10;;;;;;4916800;28;92527;-80
2023/02/03 05:11:52;;;;;;;3.20;0.82;;;6.50;78.10;;;;;;4920870;28;93247;-77
2023/02/03 05:14:18;;;;;;;3.55;0.70;;;6.50;78.20;;;;;;4920269;28;92244;-77
2023/02/03 05:16:44;;;;;;;3.25;0.70;;;6.60;77.90;;;;;;4922372;28;92349;-77
2023/02/03 05:19:09;;;;;;;4.90;0.77;;;6.60;77.40;;;;;;4919159;28;91614;-79
2023/02/03 05:21:35;;;;;;;2.70;0.63;;;6.60;77.40;;;;;;4926278;28;92617;-79
2023/02/03 05:24:02;;;;;;;3.38;0.80;;;6.70;77.40;;;;;;4919768;28;92866;-78
2023/02/03 05:26:28;;;;;;;4.28;0.73;;;6.70;76.80;;;;;;4925207;28;93055;-79
2023/02/03 05:28:53;;;;;;;2.75;0.65;;;6.70;77.20;;;;;;4926252;28;92459;-78
2023/02/03 05:31:19;;;;;;;2.45;0.77;;;6.70;77.40;;;;;;4919443;28;93549;-78
2023/02/03 05:33:45;;;;;;;3.40;0.90;;;6.70;77.20;;;;;;4918580;28;93836;-79
2023/02/03 05:36:11;;;;;;;3.03;0.80;;;6.70;76.90;;;;;;4921859;28;92457;-79
2023/02/03 05:38:36;;;;;;;3.15;0.60;;;6.70;77.20;;;;;;4918329;28;92397;-80
2023/02/03 05:43:46;;;;;;;4.00;0.90;;;6.60;77.10;;;;;;4920341;28;92127;-80
2023/02/03 05:46:12;;;;;;;4.57;1.00;;;6.60;76.90;;;;;;4916874;28;92333;-78
2023/02/03 05:48:37;;;;;;;3.08;0.82;;;6.60;77.00;;;;;;4919700;28;94032;-79
2023/02/03 05:51:03;;;;;;;4.85;0.93;;;6.60;77.20;;;;;;4920082;28;93048;-79
2023/02/03 05:53:29;;;;;;;4.03;0.80;;;6.60;77.50;;;;;;4920068;28;93445;-77
2023/02/03 05:55:54;;;;;;;2.97;0.70;;;6.50;77.80;;;;;;4923536;28;92503;-77
2023/02/03 05:58:20;;;;;;;5.80;1.20;;;6.50;78.20;;;;;;4922828;28;92684;-81
2023/02/03 06:00:46;;;;;;;4.05;0.80;;;6.40;78.50;;;;;;4918622;28;92789;-78
2023/02/03 06:03:11;;;;;;;3.78;0.88;;;6.40;78.60;;;;;;4915685;28;93491;-78
2023/02/03 06:05:40;;;;;;;3.28;1.02;;;6.30;79.40;;;;;;4908610;28;93189;-78
2023/02/03 06:08:09;;;;;;;4.20;1.05;;;6.20;79.70;;;;;;4916783;28;91813;-78
2023/02/03 06:10:35;;;;;;;4.82;0.70;;;6.20;79.70;;;;;;4915610;28;93400;-78
2023/02/03 06:13:08;;;;;;;3.67;0.95;;;6.10;79.80;;;;;;4916934;28;92407;-79
2023/02/03 06:15:34;;;;;;;4.18;1.33;;;6.10;80.00;;;;;;4914369;28;93885;-78
2023/02/03 06:18:00;;;;;;;4.00;1.15;;;6.00;80.30;;;;;;4915397;28;92371;-81
2023/02/03 06:20:26;;;;;;;4.18;0.85;;;5.90;80.40;;;;;;4917559;28;93381;-80
2023/02/03 06:22:51;;;;;;;2.45;0.90;;;5.80;80.70;;;;;;4914167;28;94850;-82
2023/02/03 06:25:17;;;;;;;4.10;1.00;;;5.80;80.50;;;;;;4915377;28;92720;-79
2023/02/03 06:27:43;;;;;;;2.95;1.00;;;5.80;81.20;;;;;;4915112;28;92574;-79
2023/02/03 06:30:10;;;;;;;4.80;0.98;;;5.70;80.40;;;;;;4914972;28;92804;-79
2023/02/03 06:32:36;;;;;;;3.33;0.65;;;5.70;80.50;;;;;;4914390;28;93219;-79
2023/02/03 06:35:02;;;;;;;3.92;0.90;;;5.70;80.30;;;;;;4919704;28;92619;-81
2023/02/03 06:37:28;;;;;;;3.95;1.45;;;5.70;79.90;;;;;;4913150;28;93957;-79
2023/02/03 06:39:53;;;;;;;2.55;0.85;;;5.60;80.10;;;;;;4912743;28;94563;-80
2023/02/03 06:42:19;;;;;;;3.60;1.00;;;5.60;80.60;;;;;;4915934;28;93790;-81
2023/02/03 06:44:45;;;;;;;2.40;1.00;;;5.50;80.80;;;;;;4911615;28;92313;-84
2023/02/03 06:47:10;;;;;;;3.90;0.80;;;5.50;81.00;;;;;;4914157;28;92657;-81
2023/02/03 06:49:36;;;;;;;2.95;1.10;;;5.40;81.00;;;;;;4912977;28;94133;-79
2023/02/03 06:52:01;;;;;;;6.65;0.77;;;5.40;80.70;;;;;;4914707;28;93886;-81
2023/02/03 06:54:27;;;;;;;3.50;0.90;;;5.40;80.90;;;;;;4911034;28;93816;-76
2023/02/03 06:56:53;;;;;;;4.25;0.90;;;5.50;80.90;;;;;;4913920;28;92504;-76
2023/02/03 06:59:18;;;;;;;2.70;1.00;;;5.50;80.90;;;;;;4915929;28;92655;-77
2023/02/03 07:01:44;;;;;;;3.47;1.08;;;5.60;80.80;;;;;;4923597;28;92443;-77
2023/02/03 07:04:10;;;;;;;2.90;0.85;;;5.70;80.70;;;;;;4916296;28;93559;-76
2023/02/03 07:06:35;;;;;;;3.90;0.88;;;5.80;80.30;;;;;;4915629;28;92628;-82
2023/02/03 07:09:03;;;;;;;2.47;0.80;;;5.80;80.40;;;;;;4914198;28;93635;-80
2023/02/03 07:11:29;;;;;;;3.92;1.05;;;5.90;80.40;;;;;;4910937;28;92710;-80
2023/02/03 07:13:55;;;;;;;8.07;1.13;;;6.00;80.30;;;;;;4916083;28;94203;-81
2023/02/03 07:16:21;;;;;;;6.32;1.42;;;6.10;79.90;;;;;;4916395;28;93651;-80
2023/02/03 07:18:46;;;;;;;3.28;1.10;;;6.10;80.00;;;;;;4915454;28;94241;-79
2023/02/03 07:21:13;;;;;;;7.22;1.42;;;6.30;79.80;;;;;;4920113;28;92640;-77
2023/02/03 07:23:39;;;;;;;5.53;1.77;;;6.60;79.00;;;;;;4911443;28;94162;-79
2023/02/03 07:26:06;;;;;;;6.43;1.88;;;7.20;78.60;;;;;;4920209;28;92173;-79
2023/02/03 07:28:35;;;;;;;3.63;1.48;;;7.70;76.50;;;;;;4921080;28;97132;-76
2023/02/03 07:31:03;;;;;;;5.00;1.30;;;8.10;75.60;;;;;;4919383;28;94031;-81
2023/02/03 07:33:29;;;;;;;4.00;1.15;;;8.40;74.70;;;;;;4916982;28;92439;-82
2023/02/03 07:35:59;;;;;;;8.45;1.30;;;9.20;72.30;;;;;;4917939;28;92368;-81
2023/02/03 07:38:26;;;;;;;3.40;1.10;;;9.30;70.40;;;;;;4919136;28;94173;-81
2023/02/03 07:40:52;;;;;;;5.68;1.10;;;9.10;70.30;;;;;;4917873;28;92828;-83
2023/02/03 07:43:18;;;;;;;3.30;0.60;;;8.80;71.30;;;;;;4921098;28;92425;-82
2023/02/03 07:45:44;;;;;;;3.95;0.65;;;8.50;70.20;;;;;;4921562;28;91733;-80
2023/02/03 07:48:11;;;;;;;3.17;0.88;;;8.20;70.90;;;;;;4921563;28;92638;-81
2023/02/03 07:50:37;;;;;;;5.25;1.00;;;8.10;70.90;;;;;;4920852;28;92739;-81
2023/02/03 07:53:03;;;;;;;3.33;0.70;;;8.00;70.20;;;;;;4921151;28;93734;-83
2023/02/03 07:55:29;;;;;;;3.13;0.60;;;7.90;70.20;;;;;;4922129;28;92432;-81
2023/02/03 07:57:56;;;;;;;6.20;0.82;;;7.70;70.70;;;;;;4921717;28;93282;-81
2023/02/03 08:00:23;;;;;;;6.90;1.15;;;7.70;70.50;;;;;;4922461;28;92847;-81
2023/02/03 08:02:48;;;;;;;3.63;0.60;;;7.70;70.90;;;;;;4922308;28;92479;-81
2023/02/03 08:05:15;;;;;;;4.22;0.60;;;7.70;71.30;;;;;;4920697;28;93050;-81
2023/02/03 08:07:41;;;;;;;6.70;0.90;;;7.60;71.80;;;;;;4929664;28;92819;-79
2023/02/03 08:10:08;;;;;;;3.67;0.70;;;7.50;72.30;;;;;;4919301;28;93827;-82
2023/02/03 08:12:34;;;;;;;4.35;0.80;;;7.40;72.50;;;;;;4921111;28;92460;-80
2023/02/03 08:14:59;;;;;;;3.15;0.77;;;7.50;73.20;;;;;;4919665;28;92458;-82
2023/02/03 08:17:26;;;;;;;5.18;1.02;;;7.50;72.70;;;;;;4924485;28;94565;-81
2023/02/03 08:19:51;;;;;;;3.22;0.63;;;7.60;72.70;;;;;;4916271;28;94546;-80
2023/02/03 08:22:18;;;;;;;3.80;0.80;;;7.70;72.30;;;;;;4917797;28;92167;-83
2023/02/03 08:24:45;;;;;;;5.90;0.65;;;7.80;72.20;;;;;;4905887;28;92488;-80
2023/02/03 08:27:12;;;;;;;2.17;0.60;;;7.90;71.40;;;;;;4911785;28;93297;-79
2023/02/03 08:29:38;;;;;;;3.45;0.50;;;7.90;72.10;;;;;;4916487;28;93788;-80
2023/02/03 08:32:04;;;;;;;3.35;0.57;;;7.80;71.90;;;;;;4915226;28;93203;-80
2023/02/03 08:34:30;;;;;;;2.83;0.50;;;7.90;72.30;;;;;;4917046;28;91531;-80
2023/02/03 08:36:55;;;;;;;3.00;0.57;;;7.90;71.40;;;;;;4907427;28;93140;-79
2023/02/03 08:39:22;;;;;;;2.50;0.43;;;7.90;74.10;;;;;;4929779;28;93674;-80
2023/02/03 08:41:47;;;;;;;2.78;0.70;;;7.90;73.40;;;;;;4916099;28;93426;-83
2023/02/03 08:44:13;;;;;;;3.03;0.70;;;8.00;70.80;;;;;;4914360;28;92528;-83
2023/02/03 08:46:42;;;;;;;2.83;0.80;;;7.90;72.80;;;;;;4920447;28;93092;-82
2023/02/03 08:49:10;;;;;;;2.60;0.60;;;8.00;70.90;;;;;;4915745;28;92392;-83
2023/02/03 08:51:36;;;;;;;2.20;0.50;;;8.10;70.60;;;;;;4918905;28;92456;-81
2023/02/03 08:54:02;;;;;;;3.13;0.73;;;8.10;70.60;;;;;;4920981;28;92289;-79
2023/02/03 08:56:27;;;;;;;5.93;0.80;;;8.30;71.50;;;;;;4909349;28;93137;-79
2023/02/03 08:58:54;;;;;;;5.07;0.90;;;8.60;70.10;;;;;;4908275;28;93384;-79
2023/02/03 09:01:19;;;;;;;3.00;0.77;;;9.00;69.50;;;;;;4911398;28;94087;-81
2023/02/03 09:03:45;;;;;;;5.40;0.80;;;9.50;69.00;;;;;;4910964;28;92557;-80
2023/02/03 09:06:15;;;;;;;3.83;1.05;;;10.10;66.70;;;;;;4909977;28;93684;-77
2023/02/03 09:08:41;;;;;;;5.60;0.73;;;10.50;64.60;;;;;;4912938;28;95300;-80
2023/02/03 09:11:09;;;;;;;2.83;0.85;;;11.10;64.10;;;;;;4912289;28;92544;-80
2023/02/03 09:13:35;;;;;;;3.58;0.50;;;11.50;62.40;;;;;;4912812;28;93964;-80
2023/02/03 09:16:01;;;;;;;2.17;0.60;;;13.00;58.80;;;;;;4906814;28;93768;-77
2023/02/03 09:18:26;;;;;;;3.90;1.00;;;13.40;57.00;;;;;;4911572;28;92896;-78
2023/02/03 09:21:00;;;;;;;4.70;1.15;;;13.10;56.90;;;;;;4905970;28;92801;-79
2023/02/03 09:23:26;;;;;;;4.82;0.90;;;13.00;57.50;;;;;;4909565;28;93646;-78
2023/02/03 09:25:52;;;;;;;4.32;0.95;;;14.00;55.90;;;;;;4908585;28;93744;-81
2023/02/03 09:28:17;;;;;;;4.63;0.75;;;14.40;54.50;;;;;;4906596;28;93836;-80
2023/02/03 09:30:43;;;;;;;3.33;0.70;;;14.00;53.60;;;;;;4908299;28;93891;-80
2023/02/03 09:33:09;;;;;;;3.28;0.43;;;13.40;55.60;;;;;;4909262;28;94188;-80
2023/02/03 09:35:34;;;;;;;4.28;0.70;;;13.20;56.00;;;;;;4911310;28;93210;-77
2023/02/03 09:38:00;;;;;;;4.88;1.10;;;13.10;56.40;;;;;;4910393;28;93049;-77
2023/02/03 09:40:34;;;;;;;4.65;0.80;;;13.00;56.10;;;;;;4915066;28;92579;-76
2023/02/03 09:43:15;;;;;;;4.40;0.88;;;13.00;56.20;;;;;;4909525;28;92585;-79
2023/02/03 09:45:41;;;;;;;5.43;1.27;;;13.50;56.00;;;;;;4911059;28;93711;-80
2023/02/03 09:48:20;;;;;;;5.22;1.25;;;14.80;54.20;;;;;;4912718;28;91896;-79
2023/02/03 09:50:47;;;;;;;3.58;0.70;;;16.00;51.20;;;;;;4915700;28;92560;-79
2023/02/03 09:53:28;;;;;;;6.18;1.30;;;16.10;49.20;;;;;;4911342;28;92736;-78
2023/02/03 09:55:56;;;;;;;3.05;0.80;;;16.10;49.70;;;;;;4908150;28;94665;-78
2023/02/03 09:58:22;;;;;;;4.82;0.90;;;16.00;49.90;;;;;;4912713;28;94781;-77
2023/02/03 10:00:50;;;;;;;2.75;0.65;;;16.20;49.10;;;;;;4915875;28;93262;-78
2023/02/03 10:03:47;;;;;;;5.82;1.02;;;16.40;48.60;;;;;;4911996;28;92520;-81
2023/02/03 10:06:21;;;;;;;4.85;1.17;;;16.70;48.90;;;;;;4911856;28;93353;-81
2023/02/03 10:08:56;;;;;;;3.85;0.80;;;17.60;47.90;;;;;;4920939;28;94161;-85
2023/02/03 10:11:49;;;;;;;2.53;0.80;;;19.00;45.50;;;;;;4920392;28;92442;-80
2023/02/03 10:14:23;;;;;;;4.57;1.20;;;19.50;45.30;;;;;;4915498;28;91795;-81
2023/02/03 10:17:06;;;;;;;2.75;0.88;;;19.30;44.50;;;;;;4922090;28;94450;-81
2023/02/03 10:20:10;;;;;;;4.80;1.15;;;18.20;45.10;;;;;;4920394;28;92990;-85
2023/02/03 10:22:41;;;;;;;3.13;0.80;;;17.50;45.70;;;;;;4902449;28;93572;-80
2023/02/03 10:25:13;;;;;;;6.03;0.82;;;16.80;47.60;;;;;;4913391;28;93009;-77
2023/02/03 10:27:41;;;;;;;5.97;1.10;;;16.50;47.80;;;;;;4921322;28;93269;-81
2023/02/03 10:30:23;;;;;;;3.70;1.30;;;16.70;48.30;;;;;;4916880;28;93975;-79
2023/02/03 10:32:54;;;;;;;3.78;1.02;;;18.40;46.20;;;;;;4915905;28;94399;-82
2023/02/03 10:35:26;;;;;;;4.50;1.05;;;20.30;44.10;;;;;;4914538;28;92130;-78
2023/02/03 10:37:56;;;;;;;4.22;1.45;;;20.70;40.90;;;;;;4906342;28;94354;-80
2023/02/03 10:40:24;;;;;;;4.80;0.95;;;20.30;41.50;;;;;;4911646;28;92867;-79
2023/02/03 10:45:39;;;;;;;1.90;0.70;;;19.00;42.00;;;;;;4917502;28;92310;-78
2023/02/03 10:48:10;;;;;;;3.65;0.88;;;18.10;43.90;;;;;;4921288;28;93594;-81
2023/02/03 10:50:41;;;;;;;2.22;0.73;;;17.10;44.90;;;;;;4924614;28;93816;-78
2023/02/03 10:53:35;;;;;;;3.55;0.85;;;16.40;46.10;;;;;;4916059;28;92179;-79
2023/02/03 10:56:02;;;;;;;7.47;0.65;;;15.90;47.80;;;;;;4922066;28;92301;-78
2023/02/03 10:58:30;;;;;;;4.40;0.90;;;15.30;49.30;;;;;;4922752;28;93252;-78
2023/02/03 11:01:04;;;;;;;5.20;0.70;;;15.30;50.20;;;;;;4919639;28;92206;-80
2023/02/03 11:03:30;;;;;;;5.57;0.68;;;15.10;50.20;;;;;;4924106;28;92430;-79
2023/02/03 11:06:09;;;;;;;2.40;0.40;;;15.00;49.30;;;;;;4916624;28;93299;-79
2023/02/03 11:08:48;;;;;;;4.45;0.40;;;14.80;49.90;;;;;;4911885;28;94744;-81
2023/02/03 11:11:20;;;;;;;2.78;0.55;;;14.70;50.80;;;;;;4907319;28;92894;-78
2023/02/03 11:14:12;;;;;;;3.03;0.75;;;14.50;51.70;;;;;;4915094;28;94354;-77
2023/02/03 11:16:38;;;;;;;3.00;0.50;;;14.20;51.70;;;;;;4910273;28;92317;-78
2023/02/03 11:19:15;;;;;;;2.05;0.60;;;14.00;51.60;;;;;;4917393;28;93214;-79
2023/02/03 11:21:53;;;;;;;2.40;0.85;;;13.80;51.50;;;;;;4914544;28;92935;-80
2023/02/03 11:24:28;;;;;;;1.95;0.60;;;13.50;52.50;;;;;;4910733;28;94405;-81
2023/02/03 11:26:57;;;;;;;5.55;0.52;;;13.20;54.90;;;;;;4912979;28;92392;-78
2023/02/03 11:29:33;;;;;;;2.80;0.40;;;13.10;54.80;;;;;;4918459;28;93002;-80
2023/02/03 11:32:02;;;;;;;3.15;0.50;;;13.10;59.00;;;;;;4921319;28;92277;-78
2023/02/03 11:34:32;;;;;;;3.95;0.50;;;13.10;55.10;;;;;;4919672;28;92420;-78
2023/02/03 11:37:30;;;;;;;3.60;0.68;;;13.10;55.90;;;;;;4921998;28;92488;-78
2023/02/03 11:40:09;;;;;;;2.05;0.60;;;13.00;55.50;;;;;;4921146;28;94448;-81
2023/02/03 11:42:40;;;;;;;4.38;0.50;;;12.90;54.10;;;;;;4923768;28;93234;-79
2023/02/03 11:45:41;;;;;;;2.85;0.50;;;12.80;54.50;;;;;;4923801;28;92674;-83
2023/02/03 11:48:09;;;;;;;2.47;0.60;;;12.70;57.30;;;;;;4918897;28;92529;-81
2023/02/03 11:50:54;;;;;;;3.65;0.47;;;12.70;55.90;;;;;;4914767;28;93619;-80
2023/02/03 11:53:44;;;;;;;2.92;0.60;;;12.60;55.80;;;;;;4910516;28;93934;-81
2023/02/03 11:56:25;;;;;;;2.35;0.40;;;12.60;55.60;;;;;;4913304;28;93662;-83
2023/02/03 11:59:15;;;;;;;6.45;0.35;;;12.30;55.40;;;;;;4910290;28;91853;-85
2023/02/03 12:01:43;;;;;;;2.90;0.50;;;12.00;55.70;;;;;;4911141;28;93692;-81
2023/02/03 12:04:18;;;;;;;4.28;0.63;;;11.90;57.00;;;;;;4910020;28;92750;-78
2023/02/03 12:07:01;;;;;;;3.38;0.68;;;11.80;57.30;;;;;;4912280;28;94597;-79
2023/02/03 12:09:46;;;;;;;6.00;0.50;;;11.80;57.10;;;;;;4913771;28;93626;-81
2023/02/03 12:12:24;;;;;;;1.88;0.50;;;11.80;57.20;;;;;;4913419;28;93485;-79
2023/02/03 12:15:20;;;;;;;2.05;0.35;;;11.80;57.40;;;;;;4916449;28;93830;-85
2023/02/03 12:17:49;;;;;;;1.80;0.40;;;11.70;57.40;;;;;;4909344;28;94126;-86
2023/02/03 12:20:39;;;;;;;2.42;0.45;;;11.70;57.50;;;;;;4912106;28;93922;-81
2023/02/03 12:23:10;;;;;;;1.55;0.38;;;11.70;57.30;;;;;;4916778;28;94516;-78
2023/02/03 12:25:59;;;;;;;3.72;0.40;;;11.60;56.60;;;;;;4911479;28;92119;-84
2023/02/03 12:28:37;;;;;;;3.17;0.47;;;11.40;57.00;;;;;;4914151;28;93890;-80
2023/02/03 12:31:16;;;;;;;2.80;0.40;;;11.30;57.30;;;;;;4907387;28;93986;-83
2023/02/03 12:33:55;;;;;;;2.72;0.40;;;11.30;58.00;;;;;;4913779;28;94614;-82
2023/02/03 12:36:31;;;;;;;2.22;0.40;;;11.30;57.90;;;;;;4916418;28;94261;-79
2023/02/03 12:39:20;;;;;;;1.25;0.15;;;11.40;57.40;;;;;;4910641;28;94190;-79
2023/02/03 12:42:09;;;;;;;2.42;0.43;;;11.50;57.30;;;;;;4912189;28;93636;-79
2023/02/03 12:44:46;;;;;;;2.63;0.30;;;11.40;58.30;;;;;;4915427;28;93250;-81
2023/02/03 12:47:35;;;;;;;2.30;0.30;;;11.40;57.70;;;;;;4913918;28;94041;-81
2023/02/03 12:50:16;;;;;;;3.72;0.50;;;11.50;57.20;;;;;;4910241;28;92568;-81
2023/02/03 12:53:13;;;;;;;2.72;0.47;;;11.50;57.40;;;;;;4906262;28;92922;-79
2023/02/03 12:56:06;;;;;;;5.13;0.60;;;11.40;58.20;;;;;;4903652;28;93002;-78
2023/02/03 12:58:46;;;;;;;4.97;0.52;;;11.60;57.90;;;;;;4909364;28;93162;-77
2023/02/03 13:01:18;;;;;;;4.82;0.47;;;11.60;57.90;;;;;;4904922;28;94920;-78
2023/02/03 13:04:21;;;;;;;6.28;0.70;;;11.60;58.30;;;;;;4891815;28;93896;-86
2023/02/03 13:07:15;;;;;;;4.20;0.50;;;11.60;57.30;;;;;;4907776;28;93206;-77
2023/02/03 13:09:51;;;;;;;2.35;0.20;;;11.50;57.10;;;;;;4904417;28;93915;-81
2023/02/03 13:12:37;;;;;;;2.33;0.80;;;11.50;58.20;;;;;;4899873;28;92557;-78
2023/02/03 13:15:29;;;;;;;4.15;0.50;;;11.50;58.20;;;;;;4910952;28;92672;-80
2023/02/03 13:18:11;;;;;;;5.72;0.50;;;11.50;57.90;;;;;;4915144;28;93127;-79
2023/02/03 13:20:37;;;;;;;3.13;0.65;;;11.50;57.80;;;;;;4900438;28;93945;-79